sensor_id;sensor_type;location;lat;lon;timestamp;pressure;altitude;pressure_sealevel;temperature;humidity
71057;BME280;58380;48.312;9.246;2024-03-25T08:05:32;92765.75;;;2.29;100.00
71057;BME280;58380;48.312;9.246;2024-03-25T08:08:32;92743.72;;;2.08;100.00
71057;BME280;58380;48.312;9.246;2024-03-25T08:11:33;92746.41;;;2.01;100.00
71057;BME280;58380;48.312;9.246;2024-03-25T08:14:33;92755.81;;;2.14;100.00
71057;BME280;58380;48.312;9.246;2024-03-25T08:17:33;92767.00;;;2.38;100.00
71057;BME280;58380;48.312;9.246;2024-03-25T08:20:34;92752.69;;;2.64;100.00
71057;BME280;58380;48.312;9.246;2024-03-25T08:23:34;92757.88;;;2.76;100.00
71057;BME280;58380;48.312;9.246;2024-03-25T08:26:34;92764.22;;;2.68;100.00
71057;BME280;58380;48.312;9.246;2024-03-25T08:29:35;92756.44;;;2.56;100.00
71057;BME280;58380;48.312;9.246;2024-03-25T08:32:35;92754.97;;;2.49;100.00
71057;BME280;58380;48.312;9.246;2024-03-25T08:35:35;92743.22;;;2.87;100.00
71057;BME280;58380;48.312;9.246;2024-03-25T08:38:37;92745.44;;;3.23;100.00
71057;BME280;58380;48.312;9.246;2024-03-25T08:41:37;92746.31;;;3.75;99.30
71057;BME280;58380;48.312;9.246;2024-03-25T08:44:37;92713.72;;;3.77;96.48
71057;BME280;58380;48.312;9.246;2024-03-25T08:47:38;92745.66;;;4.18;94.68
71057;BME280;58380;48.312;9.246;2024-03-25T08:50:40;92733.56;;;4.12;90.25
71057;BME280;58380;48.312;9.246;2024-03-25T08:53:41;92743.75;;;4.14;90.10
71057;BME280;58380;48.312;9.246;2024-03-25T08:56:41;92729.03;;;4.07;83.01
71057;BME280;58380;48.312;9.246;2024-03-25T08:59:41;92702.72;;;4.31;91.48
71057;BME280;58380;48.312;9.246;2024-03-25T09:02:42;92726.25;;;4.75;89.93
71057;BME280;58380;48.312;9.246;2024-03-25T09:05:42;92718.88;;;4.94;87.45
71057;BME280;58380;48.312;9.246;2024-03-25T09:08:42;92704.41;;;4.86;83.54
71057;BME280;58380;48.312;9.246;2024-03-25T09:12:01;92719.00;;;5.04;87.46
71057;BME280;58380;48.312;9.246;2024-03-25T09:15:02;92707.19;;;5.02;80.86
71057;BME280;58380;48.312;9.246;2024-03-25T09:18:03;92690.44;;;4.53;71.96
71057;BME280;58380;48.312;9.246;2024-03-25T09:21:04;92701.94;;;4.30;75.59
71057;BME280;58380;48.312;9.246;2024-03-25T09:24:05;92705.88;;;4.33;76.16
71057;BME280;58380;48.312;9.246;2024-03-25T09:27:06;92703.56;;;4.59;77.60
71057;BME280;58380;48.312;9.246;2024-03-25T09:30:07;92689.16;;;4.78;67.98
71057;BME280;58380;48.312;9.246;2024-03-25T09:33:09;92693.09;;;5.03;74.07
71057;BME280;58380;48.312;9.246;2024-03-25T09:36:09;92699.00;;;4.93;59.45
71057;BME280;58380;48.312;9.246;2024-03-25T09:39:11;92682.16;;;4.62;62.35
71057;BME280;58380;48.312;9.246;2024-03-25T09:42:15;92687.94;;;4.86;69.38
71057;BME280;58380;48.312;9.246;2024-03-25T09:45:24;92689.53;;;5.14;70.56
71057;BME280;58380;48.312;9.246;2024-03-25T09:48:28;92660.38;;;5.27;66.84
71057;BME280;58380;48.312;9.246;2024-03-25T09:51:30;92654.75;;;5.46;75.17
71057;BME280;58380;48.312;9.246;2024-03-25T09:54:31;92674.50;;;5.63;71.35
71057;BME280;58380;48.312;9.246;2024-03-25T09:57:32;92660.03;;;5.51;68.08
71057;BME280;58380;48.312;9.246;2024-03-25T10:00:33;92675.47;;;5.84;70.17
71057;BME280;58380;48.312;9.246;2024-03-25T10:03:33;92646.09;;;5.77;71.15
71057;BME280;58380;48.312;9.246;2024-03-25T10:06:34;92659.25;;;5.88;66.83
71057;BME280;58380;48.312;9.246;2024-03-25T10:09:34;92648.44;;;5.79;66.22
71057;BME280;58380;48.312;9.246;2024-03-25T10:12:36;92631.66;;;5.75;69.02
71057;BME280;58380;48.312;9.246;2024-03-25T10:15:36;92631.31;;;5.98;69.50
71057;BME280;58380;48.312;9.246;2024-03-25T10:18:37;92626.59;;;6.00;65.35
71057;BME280;58380;48.312;9.246;2024-03-25T10:21:37;92622.25;;;6.21;60.32
71057;BME280;58380;48.312;9.246;2024-03-25T10:24:45;92631.72;;;6.28;60.56
71057;BME280;58380;48.312;9.246;2024-03-25T10:27:53;92612.31;;;6.23;56.85
71057;BME280;58380;48.312;9.246;2024-03-25T10:31:02;92600.47;;;6.11;55.81
71057;BME280;58380;48.312;9.246;2024-03-25T10:34:04;92603.88;;;6.16;53.86
71057;BME280;58380;48.312;9.246;2024-03-25T10:37:05;92612.84;;;6.31;54.99
71057;BME280;58380;48.312;9.246;2024-03-25T10:40:09;92595.78;;;6.23;58.98
71057;BME280;58380;48.312;9.246;2024-03-25T10:43:12;92602.91;;;6.28;62.13
71057;BME280;58380;48.312;9.246;2024-03-25T10:46:18;92589.00;;;6.22;58.51
71057;BME280;58380;48.312;9.246;2024-03-25T10:49:27;92589.75;;;6.17;50.96
71057;BME280;58380;48.312;9.246;2024-03-25T10:52:38;92582.41;;;6.14;51.07
71057;BME280;58380;48.312;9.246;2024-03-25T10:55:40;92582.06;;;6.00;49.78
71057;BME280;58380;48.312;9.246;2024-03-25T10:58:42;92570.00;;;5.94;53.31
71057;BME280;58380;48.312;9.246;2024-03-25T11:01:44;92568.78;;;6.17;56.04
71057;BME280;58380;48.312;9.246;2024-03-25T11:04:44;92588.28;;;6.42;55.99
71057;BME280;58380;48.312;9.246;2024-03-25T11:07:45;92588.03;;;6.54;57.08
71057;BME280;58380;48.312;9.246;2024-03-25T11:10:47;92568.38;;;6.56;56.71
71057;BME280;58380;48.312;9.246;2024-03-25T11:13:47;92552.59;;;6.36;52.14
71057;BME280;58380;48.312;9.246;2024-03-25T11:16:52;92557.59;;;6.37;52.53
71057;BME280;58380;48.312;9.246;2024-03-25T11:19:53;92550.50;;;6.38;52.46
71057;BME280;58380;48.312;9.246;2024-03-25T11:22:54;92546.09;;;6.54;52.32
71057;BME280;58380;48.312;9.246;2024-03-25T11:25:55;92548.78;;;6.79;55.74
71057;BME280;58380;48.312;9.246;2024-03-25T11:28:57;92532.25;;;6.94;53.93
71057;BME280;58380;48.312;9.246;2024-03-25T11:31:59;92541.44;;;7.17;50.88
71057;BME280;58380;48.312;9.246;2024-03-25T11:35:03;92494.47;;;6.95;47.12
71057;BME280;58380;48.312;9.246;2024-03-25T11:38:04;92520.44;;;7.17;48.81
71057;BME280;58380;48.312;9.246;2024-03-25T11:41:05;92504.16;;;7.30;50.48
71057;BME280;58380;48.312;9.246;2024-03-25T11:44:08;92506.50;;;7.37;47.92
71057;BME280;58380;48.312;9.246;2024-03-25T11:47:10;92500.19;;;7.38;48.67
71057;BME280;58380;48.312;9.246;2024-03-25T11:50:15;92497.31;;;7.40;52.51
71057;BME280;58380;48.312;9.246;2024-03-25T11:53:18;92489.94;;;7.52;50.28
71057;BME280;58380;48.312;9.246;2024-03-25T11:56:19;92490.47;;;7.44;51.49
71057;BME280;58380;48.312;9.246;2024-03-25T11:59:20;92463.25;;;6.99;52.02
71057;BME280;58380;48.312;9.246;2024-03-25T12:02:21;92469.53;;;7.08;52.43
71057;BME280;58380;48.312;9.246;2024-03-25T12:05:22;92462.72;;;7.07;55.24
71057;BME280;58380;48.312;9.246;2024-03-25T12:08:23;92444.06;;;7.34;49.88
71057;BME280;58380;48.312;9.246;2024-03-25T12:11:28;92426.44;;;7.40;53.71
71057;BME280;58380;48.312;9.246;2024-03-25T12:14:28;92423.78;;;7.45;55.59
71057;BME280;58380;48.312;9.246;2024-03-25T12:17:30;92429.03;;;7.50;55.53
71057;BME280;58380;48.312;9.246;2024-03-25T12:20:30;92392.09;;;7.26;49.41
71057;BME280;58380;48.312;9.246;2024-03-25T12:23:32;92409.38;;;7.37;50.34
71057;BME280;58380;48.312;9.246;2024-03-25T12:26:32;92417.78;;;7.39;54.92
71057;BME280;58380;48.312;9.246;2024-03-25T12:29:33;92410.41;;;7.46;53.70
71057;BME280;58380;48.312;9.246;2024-03-25T12:32:44;92415.66;;;7.36;55.41
71057;BME280;58380;48.312;9.246;2024-03-25T12:35:46;92419.56;;;7.54;52.54
71057;BME280;58380;48.312;9.246;2024-03-25T12:38:54;92401.44;;;7.57;55.80
71057;BME280;58380;48.312;9.246;2024-03-25T12:41:55;92396.41;;;7.66;51.04
71057;BME280;58380;48.312;9.246;2024-03-25T12:44:56;92386.19;;;7.60;52.74
71057;BME280;58380;48.312;9.246;2024-03-25T12:47:56;92377.50;;;7.64;54.11
71057;BME280;58380;48.312;9.246;2024-03-25T12:50:57;92383.50;;;7.75;51.07
71057;BME280;58380;48.312;9.246;2024-03-25T12:53:58;92360.31;;;7.87;52.69
71057;BME280;58380;48.312;9.246;2024-03-25T12:56:58;92372.09;;;7.95;50.67
71057;BME280;58380;48.312;9.246;2024-03-25T12:59:59;92366.13;;;8.24;49.78
71057;BME280;58380;48.312;9.246;2024-03-25T13:02:59;92357.09;;;8.35;54.44
71057;BME280;58380;48.312;9.246;2024-03-25T13:06:02;92355.59;;;8.29;52.24
71057;BME280;58380;48.312;9.246;2024-03-25T13:09:02;92334.97;;;8.07;54.59
71057;BME280;58380;48.312;9.246;2024-03-25T13:12:03;92336.19;;;8.19;51.56
71057;BME280;58380;48.312;9.246;2024-03-25T13:15:04;92344.31;;;8.23;48.69
71057;BME280;58380;48.312;9.246;2024-03-25T13:18:05;92331.41;;;8.27;51.21
71057;BME280;58380;48.312;9.246;2024-03-25T13:21:05;92331.97;;;8.18;50.09
71057;BME280;58380;48.312;9.246;2024-03-25T13:24:06;92326.38;;;8.30;53.77
71057;BME280;58380;48.312;9.246;2024-03-25T13:27:06;92323.78;;;8.25;50.27
71057;BME280;58380;48.312;9.246;2024-03-25T13:30:07;92314.47;;;8.04;52.06
71057;BME280;58380;48.312;9.246;2024-03-25T13:33:07;92305.88;;;7.93;49.51
71057;BME280;58380;48.312;9.246;2024-03-25T13:36:08;92316.88;;;8.00;49.66
71057;BME280;58380;48.312;9.246;2024-03-25T13:39:08;92304.44;;;7.76;48.24
71057;BME280;58380;48.312;9.246;2024-03-25T13:42:09;92313.50;;;7.94;51.03
71057;BME280;58380;48.312;9.246;2024-03-25T13:45:09;92297.78;;;7.89;48.11
71057;BME280;58380;48.312;9.246;2024-03-25T13:48:10;92276.25;;;7.87;50.20
71057;BME280;58380;48.312;9.246;2024-03-25T13:51:10;92287.72;;;8.02;47.82
71057;BME280;58380;48.312;9.246;2024-03-25T13:54:10;92267.81;;;7.90;50.08
71057;BME280;58380;48.312;9.246;2024-03-25T13:57:11;92296.38;;;8.02;46.82
71057;BME280;58380;48.312;9.246;2024-03-25T14:00:12;92274.78;;;8.05;49.55
71057;BME280;58380;48.312;9.246;2024-03-25T14:03:14;92279.03;;;8.01;48.39
71057;BME280;58380;48.312;9.246;2024-03-25T14:06:15;92264.31;;;8.00;50.20
71057;BME280;58380;48.312;9.246;2024-03-25T14:09:25;92272.50;;;8.28;49.05
71057;BME280;58380;48.312;9.246;2024-03-25T14:12:26;92254.72;;;8.19;46.23
71057;BME280;58380;48.312;9.246;2024-03-25T14:15:26;92273.63;;;8.21;47.27
71057;BME280;58380;48.312;9.246;2024-03-25T14:18:27;92236.66;;;8.08;48.01
71057;BME280;58380;48.312;9.246;2024-03-25T14:21:27;92255.84;;;8.42;47.06
71057;BME280;58380;48.312;9.246;2024-03-25T14:24:28;92240.13;;;8.32;45.96
71057;BME280;58380;48.312;9.246;2024-03-25T14:27:28;92222.34;;;8.24;47.15
71057;BME280;58380;48.312;9.246;2024-03-25T14:30:28;92241.09;;;8.47;48.31
71057;BME280;58380;48.312;9.246;2024-03-25T14:33:29;92224.56;;;8.65;49.80
71057;BME280;58380;48.312;9.246;2024-03-25T14:36:29;92228.56;;;8.62;46.84
71057;BME280;58380;48.312;9.246;2024-03-25T14:39:29;92224.91;;;8.82;47.74
71057;BME280;58380;48.312;9.246;2024-03-25T14:42:30;92224.97;;;9.01;46.95
71057;BME280;58380;48.312;9.246;2024-03-25T14:45:31;92220.09;;;8.90;46.49
71057;BME280;58380;48.312;9.246;2024-03-25T14:48:32;92198.47;;;8.93;45.65
71057;BME280;58380;48.312;9.246;2024-03-25T14:51:32;92201.28;;;9.20;47.56
71057;BME280;58380;48.312;9.246;2024-03-25T14:54:33;92205.47;;;9.02;43.96
71057;BME280;58380;48.312;9.246;2024-03-25T14:57:34;92183.50;;;8.69;45.93
71057;BME280;58380;48.312;9.246;2024-03-25T15:00:36;92190.00;;;8.96;47.89
71057;BME280;58380;48.312;9.246;2024-03-25T15:03:36;92191.66;;;8.92;47.48
71057;BME280;58380;48.312;9.246;2024-03-25T15:06:37;92193.34;;;8.82;46.05
71057;BME280;58380;48.312;9.246;2024-03-25T15:09:37;92194.66;;;9.04;46.76
71057;BME280;58380;48.312;9.246;2024-03-25T15:12:40;92180.59;;;9.14;45.53
71057;BME280;58380;48.312;9.246;2024-03-25T15:15:41;92178.25;;;9.31;45.16
71057;BME280;58380;48.312;9.246;2024-03-25T15:18:47;92160.81;;;9.68;44.18
71057;BME280;58380;48.312;9.246;2024-03-25T15:21:48;92155.69;;;10.23;45.08
71057;BME280;58380;48.312;9.246;2024-03-25T15:24:48;92136.31;;;10.00;42.25
71057;BME280;58380;48.312;9.246;2024-03-25T15:27:48;92153.84;;;9.77;43.24
71057;BME280;58380;48.312;9.246;2024-03-25T15:30:49;92146.66;;;9.97;44.61
71057;BME280;58380;48.312;9.246;2024-03-25T15:33:50;92149.16;;;9.88;45.23
71057;BME280;58380;48.312;9.246;2024-03-25T15:36:51;92139.72;;;10.01;45.15
71057;BME280;58380;48.312;9.246;2024-03-25T15:39:53;92137.16;;;10.42;43.59
71057;BME280;58380;48.312;9.246;2024-03-25T15:42:53;92132.50;;;10.39;42.94
71057;BME280;58380;48.312;9.246;2024-03-25T15:45:58;92132.16;;;10.82;42.22
71057;BME280;58380;48.312;9.246;2024-03-25T15:49:04;92134.69;;;11.01;40.90
71057;BME280;58380;48.312;9.246;2024-03-25T15:52:04;92123.19;;;10.69;40.83
71057;BME280;58380;48.312;9.246;2024-03-25T15:55:05;92125.19;;;11.00;40.62
71057;BME280;58380;48.312;9.246;2024-03-25T15:58:06;92114.00;;;11.53;39.61
71057;BME280;58380;48.312;9.246;2024-03-25T16:01:07;92107.34;;;11.19;40.02
71057;BME280;58380;48.312;9.246;2024-03-25T16:04:07;92116.72;;;11.26;41.82
71057;BME280;58380;48.312;9.246;2024-03-25T16:07:08;92098.19;;;11.03;41.77
71057;BME280;58380;48.312;9.246;2024-03-25T16:10:08;92090.31;;;11.26;40.77
71057;BME280;58380;48.312;9.246;2024-03-25T16:13:09;92048.25;;;10.43;39.30
71057;BME280;58380;48.312;9.246;2024-03-25T16:16:09;92086.06;;;10.52;41.94
71057;BME280;58380;48.312;9.246;2024-03-25T16:19:10;92075.22;;;10.12;42.00
71057;BME280;58380;48.312;9.246;2024-03-25T16:22:11;92083.00;;;10.03;41.71
71057;BME280;58380;48.312;9.246;2024-03-25T16:25:12;92068.44;;;9.78;42.36
71057;BME280;58380;48.312;9.246;2024-03-25T16:28:13;92081.88;;;9.63;43.40
71057;BME280;58380;48.312;9.246;2024-03-25T16:31:13;92082.97;;;9.43;43.33
71057;BME280;58380;48.312;9.246;2024-03-25T16:34:14;92076.50;;;9.02;44.78
71057;BME280;58380;48.312;9.246;2024-03-25T16:37:15;92048.28;;;8.51;46.13
71057;BME280;58380;48.312;9.246;2024-03-25T16:40:15;92065.47;;;8.38;46.56
71057;BME280;58380;48.312;9.246;2024-03-25T16:43:16;92065.59;;;8.09;46.06
71057;BME280;58380;48.312;9.246;2024-03-25T16:46:17;92068.66;;;7.92;46.09
71057;BME280;58380;48.312;9.246;2024-03-25T16:49:17;92061.97;;;7.76;47.53
71057;BME280;58380;48.312;9.246;2024-03-25T16:52:18;92071.03;;;7.65;48.15
71057;BME280;58380;48.312;9.246;2024-03-25T16:55:18;92075.59;;;7.54;48.24
71057;BME280;58380;48.312;9.246;2024-03-25T16:58:18;92063.34;;;7.44;48.05
71057;BME280;58380;48.312;9.246;2024-03-25T17:01:19;92062.41;;;7.30;47.87
71057;BME280;58380;48.312;9.246;2024-03-25T17:04:19;92063.53;;;7.19;48.74
71057;BME280;58380;48.312;9.246;2024-03-25T17:07:19;92049.78;;;7.03;49.60
71057;BME280;58380;48.312;9.246;2024-03-25T17:10:20;92061.81;;;7.04;49.94
71057;BME280;58380;48.312;9.246;2024-03-25T17:13:20;92062.88;;;7.03;48.94
71057;BME280;58380;48.312;9.246;2024-03-25T17:16:21;92030.03;;;6.76;51.29
71057;BME280;58380;48.312;9.246;2024-03-25T17:19:21;92059.63;;;6.82;50.23
71057;BME280;58380;48.312;9.246;2024-03-25T17:22:21;92042.13;;;6.72;51.03
71057;BME280;58380;48.312;9.246;2024-03-25T17:25:22;92045.13;;;6.55;50.54
71057;BME280;58380;48.312;9.246;2024-03-25T17:28:22;92057.41;;;6.60;50.95
71057;BME280;58380;48.312;9.246;2024-03-25T17:31:23;92050.13;;;6.52;51.86
71057;BME280;58380;48.312;9.246;2024-03-25T17:34:23;92018.28;;;6.29;52.37
71057;BME280;58380;48.312;9.246;2024-03-25T17:37:24;92021.44;;;6.21;52.68
71057;BME280;58380;48.312;9.246;2024-03-25T17:40:24;92044.78;;;6.17;53.03
71057;BME280;58380;48.312;9.246;2024-03-25T17:43:25;92033.03;;;6.10;53.41
71057;BME280;58380;48.312;9.246;2024-03-25T17:46:25;92041.94;;;6.09;53.11
71057;BME280;58380;48.312;9.246;2024-03-25T17:49:29;92029.41;;;6.00;53.94
71057;BME280;58380;48.312;9.246;2024-03-25T17:52:29;92030.50;;;5.94;54.05
71057;BME280;58380;48.312;9.246;2024-03-25T17:55:29;92019.25;;;5.78;54.91
71057;BME280;58380;48.312;9.246;2024-03-25T17:58:30;92015.63;;;5.59;55.80
71057;BME280;58380;48.312;9.246;2024-03-25T18:01:30;92023.78;;;5.52;56.54
71057;BME280;58380;48.312;9.246;2024-03-25T18:04:32;92020.94;;;5.33;58.82
71057;BME280;58380;48.312;9.246;2024-03-25T18:07:32;92023.31;;;5.14;58.83
71057;BME280;58380;48.312;9.246;2024-03-25T18:10:32;92029.59;;;4.98;61.98
71057;BME280;58380;48.312;9.246;2024-03-25T18:13:33;92018.63;;;4.70;63.22
71057;BME280;58380;48.312;9.246;2024-03-25T18:16:34;92025.38;;;4.41;64.90
71057;BME280;58380;48.312;9.246;2024-03-25T18:19:34;92028.75;;;4.31;64.90
71057;BME280;58380;48.312;9.246;2024-03-25T18:22:35;92031.59;;;4.14;66.77
71057;BME280;58380;48.312;9.246;2024-03-25T18:25:36;92038.06;;;4.01;67.24
71057;BME280;58380;48.312;9.246;2024-03-25T18:28:37;92022.09;;;3.82;68.53
71057;BME280;58380;48.312;9.246;2024-03-25T18:31:37;92017.59;;;3.62;69.50
71057;BME280;58380;48.312;9.246;2024-03-25T18:34:37;92028.25;;;3.56;70.25
71057;BME280;58380;48.312;9.246;2024-03-25T18:37:39;92027.41;;;3.45;72.05
71057;BME280;58380;48.312;9.246;2024-03-25T18:40:39;92024.44;;;3.26;72.93
71057;BME280;58380;48.312;9.246;2024-03-25T18:43:39;91999.00;;;3.01;73.90
71057;BME280;58380;48.312;9.246;2024-03-25T18:46:40;92022.19;;;2.97;75.82
71057;BME280;58380;48.312;9.246;2024-03-25T18:49:40;91985.97;;;2.64;76.47
71057;BME280;58380;48.312;9.246;2024-03-25T18:52:41;92006.31;;;2.67;77.48
71057;BME280;58380;48.312;9.246;2024-03-25T18:55:42;91990.78;;;2.45;78.13
71057;BME280;58380;48.312;9.246;2024-03-25T18:58:42;92009.53;;;2.47;79.34
71057;BME280;58380;48.312;9.246;2024-03-25T19:01:42;92014.91;;;2.35;79.89
71057;BME280;58380;48.312;9.246;2024-03-25T19:04:43;92016.44;;;2.31;80.41
71057;BME280;58380;48.312;9.246;2024-03-25T19:07:43;92015.34;;;2.27;81.15
71057;BME280;58380;48.312;9.246;2024-03-25T19:10:43;92018.72;;;2.22;81.57
71057;BME280;58380;48.312;9.246;2024-03-25T19:13:44;92017.56;;;2.13;82.88
71057;BME280;58380;48.312;9.246;2024-03-25T19:16:44;91993.25;;;1.75;83.73
71057;BME280;58380;48.312;9.246;2024-03-25T19:19:44;92014.44;;;1.89;84.22
71057;BME280;58380;48.312;9.246;2024-03-25T19:22:45;92007.31;;;1.79;84.83
71057;BME280;58380;48.312;9.246;2024-03-25T19:25:46;91996.63;;;1.76;84.95
71057;BME280;58380;48.312;9.246;2024-03-25T19:28:46;91994.84;;;1.81;83.93
71057;BME280;58380;48.312;9.246;2024-03-25T19:31:46;91989.78;;;1.69;84.46
71057;BME280;58380;48.312;9.246;2024-03-25T19:34:48;91990.63;;;1.75;82.54
71057;BME280;58380;48.312;9.246;2024-03-25T19:37:49;91987.63;;;2.10;80.31
71057;BME280;58380;48.312;9.246;2024-03-25T19:40:49;91981.50;;;2.27;79.45
71057;BME280;58380;48.312;9.246;2024-03-25T19:43:50;91964.97;;;2.43;77.10
71057;BME280;58380;48.312;9.246;2024-03-25T19:46:51;91973.72;;;2.64;77.61
71057;BME280;58380;48.312;9.246;2024-03-25T19:49:52;91963.63;;;2.73;75.03
71057;BME280;58380;48.312;9.246;2024-03-25T19:52:53;91969.88;;;2.72;75.64
71057;BME280;58380;48.312;9.246;2024-03-25T19:55:57;91956.59;;;2.73;75.04
71057;BME280;58380;48.312;9.246;2024-03-25T19:58:58;91959.56;;;2.87;74.21
71057;BME280;58380;48.312;9.246;2024-03-25T20:01:59;91952.56;;;2.93;72.56
71057;BME280;58380;48.312;9.246;2024-03-25T20:05:00;91951.84;;;3.02;72.01
71057;BME280;58380;48.312;9.246;2024-03-25T20:08:00;91968.81;;;3.10;72.48
71057;BME280;58380;48.312;9.246;2024-03-25T20:11:00;91940.06;;;2.95;72.88
71057;BME280;58380;48.312;9.246;2024-03-25T20:14:01;91949.75;;;3.05;71.63
71057;BME280;58380;48.312;9.246;2024-03-25T20:17:01;91955.75;;;3.05;71.89
71057;BME280;58380;48.312;9.246;2024-03-25T20:20:02;91952.13;;;3.11;71.46
71057;BME280;58380;48.312;9.246;2024-03-25T20:23:02;91947.72;;;3.17;71.72
71057;BME280;58380;48.312;9.246;2024-03-25T20:26:03;91940.22;;;3.26;70.51
71057;BME280;58380;48.312;9.246;2024-03-25T20:29:03;91931.28;;;3.16;70.95
71057;BME280;58380;48.312;9.246;2024-03-25T20:32:04;91925.53;;;3.14;71.21
71057;BME280;58380;48.312;9.246;2024-03-25T20:35:04;91920.06;;;3.11;70.92
71057;BME280;58380;48.312;9.246;2024-03-25T20:38:05;91927.13;;;3.15;71.11
71057;BME280;58380;48.312;9.246;2024-03-25T20:41:05;91918.00;;;3.13;70.73
71057;BME280;58380;48.312;9.246;2024-03-25T20:44:05;91912.75;;;3.08;71.60
71057;BME280;58380;48.312;9.246;2024-03-25T20:47:06;91909.16;;;3.19;70.64
71057;BME280;58380;48.312;9.246;2024-03-25T20:50:07;91910.41;;;3.11;71.01
71057;BME280;58380;48.312;9.246;2024-03-25T20:53:07;91888.53;;;3.07;70.70
71057;BME280;58380;48.312;9.246;2024-03-25T20:56:08;91909.13;;;3.14;70.86
71057;BME280;58380;48.312;9.246;2024-03-25T20:59:08;91918.53;;;3.15;70.86
71057;BME280;58380;48.312;9.246;2024-03-25T21:02:08;91915.66;;;3.16;71.15
71057;BME280;58380;48.312;9.246;2024-03-25T21:05:09;91906.25;;;3.10;70.79
71057;BME280;58380;48.312;9.246;2024-03-25T21:08:11;91902.56;;;3.06;70.71
71057;BME280;58380;48.312;9.246;2024-03-25T21:11:11;91898.69;;;3.09;71.09
71057;BME280;58380;48.312;9.246;2024-03-25T21:14:11;91896.34;;;3.07;71.14
71057;BME280;58380;48.312;9.246;2024-03-25T21:17:12;91885.91;;;3.07;70.27
71057;BME280;58380;48.312;9.246;2024-03-25T21:20:12;91913.31;;;3.15;71.80
71057;BME280;58380;48.312;9.246;2024-03-25T21:23:14;91885.91;;;3.07;70.85
71057;BME280;58380;48.312;9.246;2024-03-25T21:26:16;91891.41;;;3.16;71.24
71057;BME280;58380;48.312;9.246;2024-03-25T21:29:17;91899.97;;;3.06;71.70
71057;BME280;58380;48.312;9.246;2024-03-25T21:32:17;91893.97;;;3.00;71.76
71057;BME280;58380;48.312;9.246;2024-03-25T21:35:18;91885.34;;;3.00;71.65
71057;BME280;58380;48.312;9.246;2024-03-25T21:38:18;91885.81;;;2.92;72.96
71057;BME280;58380;48.312;9.246;2024-03-25T21:41:18;91883.47;;;2.85;73.21
71057;BME280;58380;48.312;9.246;2024-03-25T21:44:18;91885.59;;;2.93;72.59
71057;BME280;58380;48.312;9.246;2024-03-25T21:47:19;91861.31;;;2.83;72.87
71057;BME280;58380;48.312;9.246;2024-03-25T21:50:19;91866.25;;;2.89;73.43
71057;BME280;58380;48.312;9.246;2024-03-25T21:53:19;91870.47;;;2.95;72.77
71057;BME280;58380;48.312;9.246;2024-03-25T21:56:20;91873.88;;;2.96;72.95
71057;BME280;58380;48.312;9.246;2024-03-25T21:59:21;91879.06;;;2.96;73.72
71057;BME280;58380;48.312;9.246;2024-03-25T22:02:22;91875.16;;;2.93;73.90
71057;BME280;58380;48.312;9.246;2024-03-25T22:05:22;91857.94;;;2.87;73.20
71057;BME280;58380;48.312;9.246;2024-03-25T22:08:23;91855.84;;;2.89;73.98
71057;BME280;58380;48.312;9.246;2024-03-25T22:11:23;91864.94;;;2.87;74.09
71057;BME280;58380;48.312;9.246;2024-03-25T22:14:24;91855.56;;;2.80;74.37
71057;BME280;58380;48.312;9.246;2024-03-25T22:17:24;91870.13;;;2.81;75.21
71057;BME280;58380;48.312;9.246;2024-03-25T22:20:25;91866.50;;;2.77;75.03
71057;BME280;58380;48.312;9.246;2024-03-25T22:23:26;91844.81;;;2.72;74.79
71057;BME280;58380;48.312;9.246;2024-03-25T22:26:26;91867.81;;;2.80;75.83
71057;BME280;58380;48.312;9.246;2024-03-25T22:29:27;91839.84;;;2.65;75.47
71057;BME280;58380;48.312;9.246;2024-03-25T22:32:27;91835.94;;;2.63;76.30
71057;BME280;58380;48.312;9.246;2024-03-25T22:35:28;91859.91;;;2.65;76.30
